sensor_id;sensor_type;location;lat;lon;timestamp;P1;P2;P0
55549;PMS7003;41397;49.972;18.944;2022-08-07T00:04:24;20;20;15
55549;PMS7003;41397;49.972;18.944;2022-08-07T00:09:38;23;22;16
55549;PMS7003;41397;49.972;18.944;2022-08-07T00:14:52;25;24;19
55549;PMS7003;41397;49.972;18.944;2022-08-07T00:20:06;30;27;19
55549;PMS7003;41397;49.972;18.944;2022-08-07T00:20:24;30;27;19
55549;PMS7003;41397;49.972;18.944;2022-08-07T00:25:19;25;24;17
55549;PMS7003;41397;49.972;18.944;2022-08-07T00:30:36;25;24;16
55549;PMS7003;41397;49.972;18.944;2022-08-07T00:35:49;27;25;18
55549;PMS7003;41397;49.972;18.944;2022-08-07T00:41:03;24;24;17
55549;PMS7003;41397;49.972;18.944;2022-08-07T00:46:17;23;23;18
55549;PMS7003;41397;49.972;18.944;2022-08-07T00:50:38;18;18;14
55549;PMS7003;41397;49.972;18.944;2022-08-07T00:51:31;23;22;18
55549;PMS7003;41397;49.972;18.944;2022-08-07T00:56:45;21;20;16
55549;PMS7003;41397;49.972;18.944;2022-08-07T01:01:59;9;9;7
55549;PMS7003;41397;49.972;18.944;2022-08-07T01:07:14;17;17;11
55549;PMS7003;41397;49.972;18.944;2022-08-07T01:12:31;21;20;12
55549;PMS7003;41397;49.972;18.944;2022-08-07T01:17:48;25;24;16
55549;PMS7003;41397;49.972;18.944;2022-08-07T01:20:53;23;20;15
55549;PMS7003;41397;49.972;18.944;2022-08-07T01:23:02;19;19;12
55549;PMS7003;41397;49.972;18.944;2022-08-07T01:28:16;30;26;17
55549;PMS7003;41397;49.972;18.944;2022-08-07T01:33:30;29;26;16
55549;PMS7003;41397;49.972;18.944;2022-08-07T01:38:44;25;24;13
55549;PMS7003;41397;49.972;18.944;2022-08-07T01:43:58;25;24;16
55549;PMS7003;41397;49.972;18.944;2022-08-07T01:49:12;32;29;18
55549;PMS7003;41397;49.972;18.944;2022-08-07T01:51:19;21;21;16
55549;PMS7003;41397;49.972;18.944;2022-08-07T01:54:26;21;21;13
55549;PMS7003;41397;49.972;18.944;2022-08-07T01:59:46;23;21;12
55549;PMS7003;41397;49.972;18.944;2022-08-07T02:05:24;21;21;15
55549;PMS7003;41397;49.972;18.944;2022-08-07T02:10:30;15;15;13
55549;PMS7003;41397;49.972;18.944;2022-08-07T02:15:45;26;24;14
55549;PMS7003;41397;49.972;18.944;2022-08-07T02:21:02;26;24;16
55549;PMS7003;41397;49.972;18.944;2022-08-07T02:21:37;21;18;15
55549;PMS7003;41397;49.972;18.944;2022-08-07T02:26:17;20;20;17
55549;PMS7003;41397;49.972;18.944;2022-08-07T02:31:33;27;25;17
55549;PMS7003;41397;49.972;18.944;2022-08-07T02:36:47;28;25;18
55549;PMS7003;41397;49.972;18.944;2022-08-07T02:42:03;26;24;18
55549;PMS7003;41397;49.972;18.944;2022-08-07T02:47:18;22;21;14
55549;PMS7003;41397;49.972;18.944;2022-08-07T02:51:53;32;28;18
55549;PMS7003;41397;49.972;18.944;2022-08-07T02:52:34;25;24;16
55549;PMS7003;41397;49.972;18.944;2022-08-07T02:57:51;23;22;15
55549;PMS7003;41397;49.972;18.944;2022-08-07T03:03:07;20;20;15
55549;PMS7003;41397;49.972;18.944;2022-08-07T03:08:23;25;23;14
55549;PMS7003;41397;49.972;18.944;2022-08-07T03:13:38;31;25;17
55549;PMS7003;41397;49.972;18.944;2022-08-07T03:18:52;29;26;18
55549;PMS7003;41397;49.972;18.944;2022-08-07T03:22:09;27;25;15
55549;PMS7003;41397;49.972;18.944;2022-08-07T03:24:06;23;22;17
55549;PMS7003;41397;49.972;18.944;2022-08-07T03:29:21;18;18;15
55549;PMS7003;41397;49.972;18.944;2022-08-07T03:34:35;22;21;13
55549;PMS7003;41397;49.972;18.944;2022-08-07T03:39:51;19;19;16
55549;PMS7003;41397;49.972;18.944;2022-08-07T03:45:06;16;16;12
55549;PMS7003;41397;49.972;18.944;2022-08-07T03:50:23;19;19;15
55549;PMS7003;41397;49.972;18.944;2022-08-07T03:52:27;25;17;10
55549;PMS7003;41397;49.972;18.944;2022-08-07T03:55:38;25;24;15
55549;PMS7003;41397;49.972;18.944;2022-08-07T04:00:55;21;21;15
55549;PMS7003;41397;49.972;18.944;2022-08-07T04:06:11;14;14;11
55549;PMS7003;41397;49.972;18.944;2022-08-07T04:11:24;24;22;17
55549;PMS7003;41397;49.972;18.944;2022-08-07T04:16:39;22;22;14
55549;PMS7003;41397;49.972;18.944;2022-08-07T04:21:53;13;13;12
55549;PMS7003;41397;49.972;18.944;2022-08-07T04:22:42;15;15;12
55549;PMS7003;41397;49.972;18.944;2022-08-07T04:27:07;26;22;14
55549;PMS7003;41397;49.972;18.944;2022-08-07T04:32:21;16;16;13
55549;PMS7003;41397;49.972;18.944;2022-08-07T04:37:36;14;14;12
55549;PMS7003;41397;49.972;18.944;2022-08-07T04:42:50;18;18;13
55549;PMS7003;41397;49.972;18.944;2022-08-07T04:48:09;18;18;11
55549;PMS7003;41397;49.972;18.944;2022-08-07T04:53:02;12;12;11
55549;PMS7003;41397;49.972;18.944;2022-08-07T04:53:33;13;13;12
55549;PMS7003;41397;49.972;18.944;2022-08-07T05:15:18;13;13;9
55549;PMS7003;41397;49.972;18.944;2022-08-07T05:20:40;17;17;12
55549;PMS7003;41397;49.972;18.944;2022-08-07T05:23:20;12;12;10
55549;PMS7003;41397;49.972;18.944;2022-08-07T05:26:00;16;16;13
55549;PMS7003;41397;49.972;18.944;2022-08-07T05:31:19;21;21;14
55549;PMS7003;41397;49.972;18.944;2022-08-07T05:36:36;13;13;11
55549;PMS7003;41397;49.972;18.944;2022-08-07T05:41:52;11;11;10
55549;PMS7003;41397;49.972;18.944;2022-08-07T05:47:07;3;3;2
55549;PMS7003;41397;49.972;18.944;2022-08-07T05:52:21;14;14;12
55549;PMS7003;41397;49.972;18.944;2022-08-07T05:53:38;10;10;10
55549;PMS7003;41397;49.972;18.944;2022-08-07T05:57:35;9;9;7
55549;PMS7003;41397;49.972;18.944;2022-08-07T06:02:51;6;6;5
55549;PMS7003;41397;49.972;18.944;2022-08-07T06:08:07;11;11;9
55549;PMS7003;41397;49.972;18.944;2022-08-07T06:13:21;5;5;5
55549;PMS7003;41397;49.972;18.944;2022-08-07T06:18:35;10;10;7
55549;PMS7003;41397;49.972;18.944;2022-08-07T06:23:51;8;8;7
55549;PMS7003;41397;49.972;18.944;2022-08-07T06:24:05;8;8;7
55549;PMS7003;41397;49.972;18.944;2022-08-07T06:29:04;9;9;8
55549;PMS7003;41397;49.972;18.944;2022-08-07T06:34:18;8;8;7
55549;PMS7003;41397;49.972;18.944;2022-08-07T06:39:35;6;6;6
55549;PMS7003;41397;49.972;18.944;2022-08-07T06:44:50;5;5;3
55549;PMS7003;41397;49.972;18.944;2022-08-07T06:50:07;6;6;6
55549;PMS7003;41397;49.972;18.944;2022-08-07T06:54:19;6;6;5
55549;PMS7003;41397;49.972;18.944;2022-08-07T06:55:22;3;3;2
55549;PMS7003;41397;49.972;18.944;2022-08-07T07:00:38;1;1;1
55549;PMS7003;41397;49.972;18.944;2022-08-07T07:05:55;2;2;2
55549;PMS7003;41397;49.972;18.944;2022-08-07T07:11:08;3;3;3
55549;PMS7003;41397;49.972;18.944;2022-08-07T07:16:22;0;0;0
55549;PMS7003;41397;49.972;18.944;2022-08-07T07:21:42;1;1;0
55549;PMS7003;41397;49.972;18.944;2022-08-07T07:24:37;5;5;4
55549;PMS7003;41397;49.972;18.944;2022-08-07T07:26:57;5;3;3
55549;PMS7003;41397;49.972;18.944;2022-08-07T07:32:15;1;1;1
55549;PMS7003;41397;49.972;18.944;2022-08-07T07:37:31;2;2;2
55549;PMS7003;41397;49.972;18.944;2022-08-07T07:42:46;3;3;2
55549;PMS7003;41397;49.972;18.944;2022-08-07T07:48:05;5;5;4
55549;PMS7003;41397;49.972;18.944;2022-08-07T07:53:22;4;4;3
55549;PMS7003;41397;49.972;18.944;2022-08-07T07:54:52;7;7;7
55549;PMS7003;41397;49.972;18.944;2022-08-07T07:58:38;2;2;2
55549;PMS7003;41397;49.972;18.944;2022-08-07T08:03:53;8;8;7
55549;PMS7003;41397;49.972;18.944;2022-08-07T08:09:09;9;9;8
55549;PMS7003;41397;49.972;18.944;2022-08-07T08:14:26;4;4;4
55549;PMS7003;41397;49.972;18.944;2022-08-07T08:19:40;8;8;5
55549;PMS7003;41397;49.972;18.944;2022-08-07T08:24:55;7;7;6
55549;PMS7003;41397;49.972;18.944;2022-08-07T08:25:23;7;7;6
55549;PMS7003;41397;49.972;18.944;2022-08-07T08:30:23;11;11;9
55549;PMS7003;41397;49.972;18.944;2022-08-07T08:35:38;12;12;7
55549;PMS7003;41397;49.972;18.944;2022-08-07T08:41:01;17;17;13
55549;PMS7003;41397;49.972;18.944;2022-08-07T08:57:12;8;8;4
55549;PMS7003;41397;49.972;18.944;2022-08-07T09:13:45;1;1;1
55549;PMS7003;41397;49.972;18.944;2022-08-07T09:26:38;0;0;0
55549;PMS7003;41397;49.972;18.944;2022-08-07T09:35:19;1;1;0
55549;PMS7003;41397;49.972;18.944;2022-08-07T10:13:35;3;3;3
55549;PMS7003;41397;49.972;18.944;2022-08-07T10:35:21;1;1;1
55549;PMS7003;41397;49.972;18.944;2022-08-07T10:46:12;1;1;0
55549;PMS7003;41397;49.972;18.944;2022-08-07T10:51:37;0;0;0
55549;PMS7003;41397;49.972;18.944;2022-08-07T10:57:07;2;2;2
55549;PMS7003;41397;49.972;18.944;2022-08-07T10:57:47;0;0;0
55549;PMS7003;41397;49.972;18.944;2022-08-07T11:13:21;1;1;1
55549;PMS7003;41397;49.972;18.944;2022-08-07T11:28:10;1;1;1
55549;PMS7003;41397;49.972;18.944;2022-08-07T11:34:54;0;0;0
55549;PMS7003;41397;49.972;18.944;2022-08-07T11:51:07;3;3;3
55549;PMS7003;41397;49.972;18.944;2022-08-07T12:01:55;2;2;2
55549;PMS7003;41397;49.972;18.944;2022-08-07T12:12:54;2;2;1
55549;PMS7003;41397;49.972;18.944;2022-08-07T12:18:09;5;5;5
55549;PMS7003;41397;49.972;18.944;2022-08-07T12:23:38;2;2;2
55549;PMS7003;41397;49.972;18.944;2022-08-07T12:29:20;1;1;1
55549;PMS7003;41397;49.972;18.944;2022-08-07T12:34:40;5;5;5
55549;PMS7003;41397;49.972;18.944;2022-08-07T12:39:58;1;1;1
55549;PMS7003;41397;49.972;18.944;2022-08-07T12:45:16;4;4;3
55549;PMS7003;41397;49.972;18.944;2022-08-07T12:50:34;2;2;2
55549;PMS7003;41397;49.972;18.944;2022-08-07T12:56:00;3;3;3
55549;PMS7003;41397;49.972;18.944;2022-08-07T12:59:19;3;3;3
55549;PMS7003;41397;49.972;18.944;2022-08-07T13:01:30;1;1;1
55549;PMS7003;41397;49.972;18.944;2022-08-07T13:23:08;2;2;2
55549;PMS7003;41397;49.972;18.944;2022-08-07T13:28:36;1;1;1
55549;PMS7003;41397;49.972;18.944;2022-08-07T13:29:41;2;2;2
55549;PMS7003;41397;49.972;18.944;2022-08-07T13:39:21;4;4;3
55549;PMS7003;41397;49.972;18.944;2022-08-07T13:44:39;3;3;3
55549;PMS7003;41397;49.972;18.944;2022-08-07T13:49:56;2;2;2
55549;PMS7003;41397;49.972;18.944;2022-08-07T13:55:13;2;2;2
55549;PMS7003;41397;49.972;18.944;2022-08-07T14:00:01;6;6;6
55549;PMS7003;41397;49.972;18.944;2022-08-07T14:00:35;6;6;6
55549;PMS7003;41397;49.972;18.944;2022-08-07T14:05:51;2;2;2
55549;PMS7003;41397;49.972;18.944;2022-08-07T14:11:09;2;2;2
55549;PMS7003;41397;49.972;18.944;2022-08-07T14:16:28;1;1;0
55549;PMS7003;41397;49.972;18.944;2022-08-07T14:21:48;6;6;6
55549;PMS7003;41397;49.972;18.944;2022-08-07T14:27:05;4;4;4
55549;PMS7003;41397;49.972;18.944;2022-08-07T14:30:20;2;2;2
55549;PMS7003;41397;49.972;18.944;2022-08-07T14:32:25;4;4;4
55549;PMS7003;41397;49.972;18.944;2022-08-07T14:37:42;1;1;1
55549;PMS7003;41397;49.972;18.944;2022-08-07T14:43:05;7;7;6
55549;PMS7003;41397;49.972;18.944;2022-08-07T14:48:21;2;2;1
55549;PMS7003;41397;49.972;18.944;2022-08-07T14:53:40;3;3;3
55549;PMS7003;41397;49.972;18.944;2022-08-07T14:59:01;1;1;1
55549;PMS7003;41397;49.972;18.944;2022-08-07T15:00:36;1;1;1
55549;PMS7003;41397;49.972;18.944;2022-08-07T15:04:18;0;0;0
55549;PMS7003;41397;49.972;18.944;2022-08-07T15:09:37;2;2;1
55549;PMS7003;41397;49.972;18.944;2022-08-07T15:14:55;4;4;4
55549;PMS7003;41397;49.972;18.944;2022-08-07T15:20:14;2;2;2
55549;PMS7003;41397;49.972;18.944;2022-08-07T15:25:34;3;3;2
55549;PMS7003;41397;49.972;18.944;2022-08-07T15:30:51;0;0;0
55549;PMS7003;41397;49.972;18.944;2022-08-07T15:31:09;0;0;0
55549;PMS7003;41397;49.972;18.944;2022-08-07T15:36:08;5;5;5
55549;PMS7003;41397;49.972;18.944;2022-08-07T15:41:24;3;3;3
55549;PMS7003;41397;49.972;18.944;2022-08-07T15:46:40;3;3;3
55549;PMS7003;41397;49.972;18.944;2022-08-07T15:52:02;2;2;2
55549;PMS7003;41397;49.972;18.944;2022-08-07T15:57:23;0;0;0
55549;PMS7003;41397;49.972;18.944;2022-08-07T16:01:30;6;6;4
55549;PMS7003;41397;49.972;18.944;2022-08-07T16:02:42;4;4;4
55549;PMS7003;41397;49.972;18.944;2022-08-07T16:30:00;0;0;0
55549;PMS7003;41397;49.972;18.944;2022-08-07T16:35:15;5;5;4
55549;PMS7003;41397;49.972;18.944;2022-08-07T17:08:02;5;5;4
55549;PMS7003;41397;49.972;18.944;2022-08-07T17:45:50;7;7;7
55549;PMS7003;41397;49.972;18.944;2022-08-07T17:51:17;4;4;4
55549;PMS7003;41397;49.972;18.944;2022-08-07T17:56:33;10;10;9
55549;PMS7003;41397;49.972;18.944;2022-08-07T18:01:56;3;3;3
55549;PMS7003;41397;49.972;18.944;2022-08-07T18:18:11;1;1;1
55549;PMS7003;41397;49.972;18.944;2022-08-07T18:28:58;7;7;4
55549;PMS7003;41397;49.972;18.944;2022-08-07T18:39:59;7;7;6
55549;PMS7003;41397;49.972;18.944;2022-08-07T18:45:19;9;9;5
55549;PMS7003;41397;49.972;18.944;2022-08-07T18:56:30;11;11;9
55549;PMS7003;41397;49.972;18.944;2022-08-07T19:13:05;6;6;6
55549;PMS7003;41397;49.972;18.944;2022-08-07T19:28:35;10;10;8
55549;PMS7003;41397;49.972;18.944;2022-08-07T19:33:54;15;15;9
55549;PMS7003;41397;49.972;18.944;2022-08-07T19:34:22;24;24;19
55549;PMS7003;41397;49.972;18.944;2022-08-07T19:39:12;12;12;11
55549;PMS7003;41397;49.972;18.944;2022-08-07T19:44:35;8;8;7
55549;PMS7003;41397;49.972;18.944;2022-08-07T19:49:54;11;11;10
55549;PMS7003;41397;49.972;18.944;2022-08-07T19:55:15;11;11;8
55549;PMS7003;41397;49.972;18.944;2022-08-07T20:00:38;11;11;9
55549;PMS7003;41397;49.972;18.944;2022-08-07T20:04:42;10;10;10
55549;PMS7003;41397;49.972;18.944;2022-08-07T20:06:00;8;8;5
55549;PMS7003;41397;49.972;18.944;2022-08-07T20:11:18;6;6;5
55549;PMS7003;41397;49.972;18.944;2022-08-07T20:16:34;8;8;5
55549;PMS7003;41397;49.972;18.944;2022-08-07T20:21:54;9;9;9
55549;PMS7003;41397;49.972;18.944;2022-08-07T21:02:30;4;4;4
55549;PMS7003;41397;49.972;18.944;2022-08-07T21:06:07;8;8;4
55549;PMS7003;41397;49.972;18.944;2022-08-07T21:07:59;8;8;7
55549;PMS7003;41397;49.972;18.944;2022-08-07T21:13:17;6;6;6
55549;PMS7003;41397;49.972;18.944;2022-08-07T21:18:34;2;2;2
55549;PMS7003;41397;49.972;18.944;2022-08-07T21:29:21;3;3;3
55549;PMS7003;41397;49.972;18.944;2022-08-07T21:36:24;3;3;2
55549;PMS7003;41397;49.972;18.944;2022-08-07T21:45:42;7;7;5
55549;PMS7003;41397;49.972;18.944;2022-08-07T22:02:00;6;6;5
55549;PMS7003;41397;49.972;18.944;2022-08-07T22:07:25;3;3;3
55549;PMS7003;41397;49.972;18.944;2022-08-07T22:12:43;3;3;3
55549;PMS7003;41397;49.972;18.944;2022-08-07T22:18:03;2;2;2
55549;PMS7003;41397;49.972;18.944;2022-08-07T22:24:49;4;4;4
55549;PMS7003;41397;49.972;18.944;2022-08-07T22:30:18;3;3;3
55549;PMS7003;41397;49.972;18.944;2022-08-07T22:40:58;4;4;3
55549;PMS7003;41397;49.972;18.944;2022-08-07T23:19:02;3;3;3
55549;PMS7003;41397;49.972;18.944;2022-08-07T23:35:27;3;3;2
55549;PMS7003;41397;49.972;18.944;2022-08-07T23:50:40;3;3;3
55549;PMS7003;41397;49.972;18.944;2022-08-07T23:51:39;5;5;4
